Time;durP1;ratioP1;P1;durP2;ratioP2;P2;SDS_P1;SDS_P2;PMS_P1;PMS_P2;Temp;Humidity;BMP_temperature;BMP_pressure;BME280_temperature;BME280_humidity;BME280_pressure;Samples;Min_cycle;Max_cycle;Signal;HPM_P1;HPM_P2
2022/07/25 14:55:29;;;;;;;;;6.00;4.00;;;;;24.48;61.21;100843.06;5038736;27;47007;-76
2022/07/25 14:58:04;;;;;;;;;4.33;3.67;;;;;25.37;55.80;100848.97;5032617;27;45355;-74
2022/07/25 15:00:31;;;;;;;;;5.00;3.67;;;;;25.70;55.30;100752.63;5052266;28;45439;-76
2022/07/25 15:02:57;;;;;;;;;4.00;3.67;;;;;26.68;53.93;100835.34;5067779;28;45747;-75
2022/07/25 15:05:22;;;;;;;;;4.00;4.00;;;;;27.27;53.06;100847.69;5056189;28;46302;-73
2022/07/25 15:07:48;;;;;;;;;3.00;3.00;;;;;27.55;51.96;100834.19;5072079;27;45624;-73
2022/07/25 15:10:20;;;;;;;;;4.00;4.00;;;;;27.52;51.95;100838.81;5071558;27;45450;-77
2022/07/25 15:12:46;;;;;;;;;4.00;3.33;;;;;27.72;51.83;100809.41;5071347;27;45438;-74
2022/07/25 15:15:12;;;;;;;;;4.00;4.00;;;;;28.00;50.67;100847.81;5071199;27;45676;-78
2022/07/25 15:17:39;;;;;;;;;3.00;3.00;;;;;27.10;51.79;100737.44;5071751;28;45577;-77
2022/07/25 15:20:05;;;;;;;;;4.00;3.00;;;;;25.39;53.16;100511.03;5071565;28;45420;-77
2022/07/25 15:22:31;;;;;;;;;1.67;1.67;;;;;27.22;53.51;100860.38;5072271;28;45404;-77
2022/07/25 15:24:56;;;;;;;;;3.00;2.67;;;;;27.36;53.33;100855.44;5069772;28;45560;-77
2022/07/25 15:27:22;;;;;;;;;2.00;1.33;;;;;27.46;52.71;100852.44;5049728;27;46028;-77
2022/07/25 15:29:48;;;;;;;;;2.00;2.00;;;;;27.50;52.21;100860.31;5084653;27;45671;-75
2022/07/25 15:32:14;;;;;;;;;1.67;0.33;;;;;27.53;52.11;100854.81;5068371;28;45449;-77
2022/07/25 15:34:39;;;;;;;;;3.00;2.00;;;;;27.58;51.25;100842.13;5069253;28;45478;-76
2022/07/25 15:37:05;;;;;;;;;0.33;0.33;;;;;27.78;51.21;100870.06;5069979;28;45422;-76
2022/07/25 15:39:30;;;;;;;;;2.00;1.00;;;;;27.85;50.64;100866.19;5071758;28;45446;-76
2022/07/25 15:41:56;;;;;;;;;1.33;1.00;;;;;27.87;50.43;100860.78;5067128;28;45454;-76
2022/07/25 15:44:22;;;;;;;;;2.00;2.00;;;;;27.91;49.91;100854.41;5061075;28;45547;-77
2022/07/25 15:46:47;;;;;;;;;2.00;2.00;;;;;27.74;49.63;100869.28;5063642;28;45436;-76
2022/07/25 15:49:14;;;;;;;;;2.00;1.00;;;;;27.55;49.70;100830.63;5077662;27;45417;-77
2022/07/25 15:51:40;;;;;;;;;1.67;1.00;;;;;27.68;50.32;100868.66;5020562;27;47006;-75
2022/07/25 15:54:05;;;;;;;;;2.00;1.00;;;;;27.86;50.38;100867.09;5037912;28;45958;-76
2022/07/25 15:56:31;;;;;;;;;1.33;1.00;;;;;27.89;49.75;100848.22;5035905;28;45578;-77
2022/07/25 15:58:57;;;;;;;;;2.00;1.67;;;;;28.01;50.07;100868.34;5044780;28;45516;-75
2022/07/25 16:01:22;;;;;;;;;1.00;1.00;;;;;27.92;48.93;100851.66;5046470;28;45557;-74
2022/07/25 16:03:48;;;;;;;;;2.33;1.67;;;;;27.90;48.94;100850.84;5047470;28;46034;-78
2022/07/25 16:06:19;;;;;;;;;1.00;1.00;;;;;27.82;49.18;100825.19;5037628;28;45466;-80
2022/07/25 16:08:47;;;;;;;;;1.33;1.00;;;;;27.72;49.43;100867.59;5028122;28;45502;-80
2022/07/25 16:11:13;;;;;;;;;1.00;1.00;;;;;27.40;50.09;100858.00;5036822;28;45391;-80
2022/07/25 16:13:39;;;;;;;;;1.00;1.00;;;;;27.17;50.35;100857.81;5038286;28;46040;-79
2022/07/25 16:16:05;;;;;;;;;1.00;1.00;;;;;27.35;51.15;100867.06;5031829;28;45571;-81
2022/07/25 16:18:30;;;;;;;;;3.33;2.00;;;;;27.49;50.23;100874.66;5035283;28;45689;-80
2022/07/25 16:20:56;;;;;;;;;4.33;2.33;;;;;27.38;49.85;100855.38;5028042;28;45376;-80
2022/07/25 16:23:24;;;;;;;;;1.00;1.00;;;;;27.31;50.18;100843.09;5034071;28;46559;-78
2022/07/25 16:25:50;;;;;;;;;3.00;2.00;;;;;25.23;50.05;100503.53;5027858;28;45630;-77
2022/07/25 16:28:16;;;;;;;;;1.00;1.00;;;;;26.94;49.34;100880.06;5030873;28;45629;-78
2022/07/25 16:30:41;;;;;;;;;2.00;2.00;;;;;27.08;49.45;100884.97;5034128;28;45544;-81
2022/07/25 16:33:07;;;;;;;;;2.33;2.00;;;;;26.74;49.72;100887.84;5034965;28;45315;-77
2022/07/25 16:35:32;;;;;;;;;1.00;1.00;;;;;26.62;49.76;100837.34;5028344;28;45362;-81
2022/07/25 16:37:59;;;;;;;;;1.00;1.00;;;;;27.04;49.55;100877.97;5033892;28;45478;-80
2022/07/25 16:40:24;;;;;;;;;1.00;1.00;;;;;27.19;49.15;100872.06;5026972;28;45513;-79
2022/07/25 16:42:54;;;;;;;;;1.33;1.33;;;;;27.26;48.91;100872.78;5036499;28;46054;-79
2022/07/25 16:45:20;;;;;;;;;1.00;1.00;;;;;27.22;48.17;100846.06;5032959;28;45534;-79
2022/07/25 16:47:46;;;;;;;;;2.33;2.33;;;;;27.40;47.92;100875.00;5034754;28;45494;-79
2022/07/25 16:50:12;;;;;;;;;2.33;2.00;;;;;27.54;48.43;100863.78;5028421;28;45639;-75
2022/07/25 16:52:37;;;;;;;;;2.67;1.67;;;;;27.56;47.46;100860.09;5031090;28;45501;-75
2022/07/25 16:55:04;;;;;;;;;3.00;2.00;;;;;27.50;47.07;100862.13;5024003;28;45551;-80
2022/07/25 16:57:30;;;;;;;;;2.00;2.00;;;;;27.17;47.50;100867.69;5025092;28;45489;-79
2022/07/25 16:59:56;;;;;;;;;5.00;3.00;;;;;27.18;47.05;100866.78;5020445;28;45376;-80
2022/07/25 17:02:22;;;;;;;;;3.00;3.00;;;;;27.13;47.30;100866.91;5027433;28;45609;-79
2022/07/25 17:04:48;;;;;;;;;2.33;2.33;;;;;27.27;47.21;100865.59;5029221;28;45573;-80
2022/07/25 17:07:14;;;;;;;;;4.00;3.67;;;;;27.22;47.40;100854.09;5032234;28;45510;-79
2022/07/25 17:09:41;;;;;;;;;3.00;2.33;;;;;27.33;48.15;100870.75;5030632;28;45728;-82
2022/07/25 17:12:07;;;;;;;;;2.33;2.33;;;;;27.45;47.86;100864.94;5027224;28;47141;-78
2022/07/25 17:14:32;;;;;;;;;3.00;3.00;;;;;27.40;48.04;100866.94;5032809;28;45528;-79
2022/07/25 17:16:58;;;;;;;;;5.33;5.00;;;;;27.42;47.92;100870.44;5027358;28;45306;-78
2022/07/25 17:19:23;;;;;;;;;4.00;3.33;;;;;27.16;48.12;100831.97;5031250;28;45501;-81
2022/07/25 17:21:49;;;;;;;;;4.33;4.33;;;;;27.24;48.09;100858.53;5029046;28;45576;-81
2022/07/25 17:24:15;;;;;;;;;4.00;4.00;;;;;27.25;48.58;100870.16;5034590;28;45560;-78
2022/07/25 17:26:40;;;;;;;;;4.00;4.00;;;;;27.23;48.94;100863.94;5027537;28;45476;-80
2022/07/25 17:29:06;;;;;;;;;4.00;3.67;;;;;27.21;48.58;100863.97;5029468;28;45584;-81
2022/07/25 17:31:33;;;;;;;;;2.67;2.67;;;;;27.17;49.04;100856.97;5030136;28;46303;-79
2022/07/25 17:33:58;;;;;;;;;2.67;2.33;;;;;26.89;49.35;100867.72;5026153;28;45491;-80
2022/07/25 17:36:24;;;;;;;;;2.00;2.00;;;;;26.91;49.34;100868.56;5026566;28;45473;-80
2022/07/25 17:38:50;;;;;;;;;2.00;2.00;;;;;26.73;50.03;100838.75;5031124;28;45691;-79
2022/07/25 17:41:16;;;;;;;;;2.00;2.00;;;;;26.66;50.46;100829.16;5033428;28;46233;-78
2022/07/25 17:43:41;;;;;;;;;5.00;4.00;;;;;26.74;50.27;100874.44;5031417;28;45571;-80
2022/07/25 17:46:09;;;;;;;;;3.00;2.00;;;;;26.13;50.90;100799.56;5029494;28;45355;-80
2022/07/25 17:48:35;;;;;;;;;4.00;3.67;;;;;26.47;50.87;100879.72;5031221;28;45542;-79
2022/07/25 17:51:01;;;;;;;;;1.33;1.33;;;;;26.32;51.53;100872.16;5031289;28;45577;-80
2022/07/25 17:53:26;;;;;;;;;4.00;3.00;;;;;26.13;52.48;100878.06;5032493;28;45695;-79
2022/07/25 17:55:52;;;;;;;;;3.67;3.67;;;;;26.15;54.34;100884.25;5030876;28;45561;-74
2022/07/25 17:58:18;;;;;;;;;4.33;4.00;;;;;26.15;55.72;100889.59;5029552;28;45519;-80
2022/07/25 18:00:43;;;;;;;;;29.33;22.67;;;;;26.06;54.78;100891.66;5023889;28;45498;-73
2022/07/25 18:03:09;;;;;;;;;11.33;10.67;;;;;25.93;55.70;100894.72;5027503;28;45645;-73
2022/07/25 18:05:34;;;;;;;;;7.00;7.00;;;;;25.73;55.78;100889.88;5027548;28;45414;-73
2022/07/25 18:08:01;;;;;;;;;9.33;7.00;;;;;25.71;56.70;100885.50;5028370;28;45502;-71
2022/07/25 18:10:27;;;;;;;;;6.33;5.00;;;;;25.57;57.10;100862.66;5034678;28;46114;-79
2022/07/25 18:12:53;;;;;;;;;6.33;6.00;;;;;25.82;58.41;100891.41;5030381;28;45871;-81
2022/07/25 18:15:18;;;;;;;;;5.33;5.33;;;;;25.91;57.84;100882.28;5026076;28;45599;-84
2022/07/25 18:17:46;;;;;;;;;5.33;5.33;;;;;26.10;56.71;100882.63;5033157;28;45536;-82
2022/07/25 18:20:13;;;;;;;;;5.00;4.00;;;;;25.94;57.53;100891.13;5030175;28;46420;-76
2022/07/25 18:22:40;;;;;;;;;5.00;5.00;;;;;25.79;57.33;100883.47;5032125;28;45424;-73
2022/07/25 18:25:07;;;;;;;;;7.00;6.33;;;;;25.22;59.02;100879.63;5030065;28;45613;-74
2022/07/25 18:27:33;;;;;;;;;7.00;7.00;;;;;25.19;59.21;100887.72;5023212;28;45485;-72
2022/07/25 18:29:58;;;;;;;;;6.00;4.00;;;;;24.96;60.17;100874.91;5001324;28;46268;-73
2022/07/25 18:32:24;;;;;;;;;5.00;4.33;;;;;25.01;59.23;100875.69;5036186;28;45623;-75
2022/07/25 18:34:50;;;;;;;;;6.00;6.00;;;;;25.02;60.36;100877.41;5020868;28;45536;-75
2022/07/25 18:37:15;;;;;;;;;6.00;5.00;;;;;24.95;59.99;100878.50;5029585;28;45477;-76
2022/07/25 18:39:42;;;;;;;;;6.67;6.67;;;;;24.76;60.22;100881.59;5021319;28;45589;-74
2022/07/25 18:42:08;;;;;;;;;5.67;5.67;;;;;24.66;59.73;100881.88;5028246;28;45533;-75
2022/07/25 18:44:33;;;;;;;;;7.00;5.67;;;;;24.69;60.35;100887.13;5033898;28;45485;-78
2022/07/25 18:46:59;;;;;;;;;6.67;6.00;;;;;24.87;59.90;100884.03;5029037;28;45641;-74
2022/07/25 18:49:26;;;;;;;;;6.67;6.00;;;;;24.93;60.05;100861.59;5021598;28;45858;-75
2022/07/25 18:51:51;;;;;;;;;5.33;5.33;;;;;25.23;59.42;100884.06;5027362;28;45753;-77
2022/07/25 18:54:17;;;;;;;;;4.67;4.67;;;;;25.34;58.63;100881.97;5031824;28;45410;-78
2022/07/25 18:56:43;;;;;;;;;6.33;5.33;;;;;25.44;58.39;100887.09;5028511;28;45569;-76
2022/07/25 18:59:08;;;;;;;;;4.67;4.67;;;;;25.43;58.61;100883.56;5033974;28;45562;-78
2022/07/25 19:01:34;;;;;;;;;6.00;6.00;;;;;25.23;58.87;100853.75;5025383;28;45324;-79
2022/07/25 19:03:59;;;;;;;;;6.67;5.33;;;;;25.37;58.41;100875.69;5032370;28;45516;-79
2022/07/25 19:06:25;;;;;;;;;6.00;5.33;;;;;25.39;58.58;100881.88;5031381;28;45513;-76
2022/07/25 19:08:51;;;;;;;;;6.00;5.33;;;;;25.32;58.74;100889.16;5027584;28;46267;-77
2022/07/25 19:11:17;;;;;;;;;6.00;6.00;;;;;25.23;58.76;100886.75;5023943;28;45565;-77
2022/07/25 19:13:42;;;;;;;;;3.33;3.00;;;;;24.99;58.54;100864.16;5028541;28;45546;-78
2022/07/25 19:16:12;;;;;;;;;4.67;4.67;;;;;25.03;58.68;100889.88;5030208;28;45571;-77
2022/07/25 19:18:38;;;;;;;;;6.00;5.67;;;;;24.83;58.82;100884.13;5028680;28;46136;-74
2022/07/25 19:21:04;;;;;;;;;7.33;5.00;;;;;24.84;58.91;100893.91;5029897;28;45391;-76
2022/07/25 19:23:29;;;;;;;;;6.00;5.00;;;;;24.80;58.71;100893.97;5028872;28;45374;-77
2022/07/25 19:25:55;;;;;;;;;7.00;6.00;;;;;24.71;58.85;100877.28;5029940;28;45409;-78
2022/07/25 19:28:21;;;;;;;;;8.00;5.00;;;;;24.58;59.16;100868.69;5024527;28;46719;-77
2022/07/25 19:30:46;;;;;;;;;5.33;5.00;;;;;24.28;59.76;100860.41;5041486;28;45542;-77
2022/07/25 19:33:13;;;;;;;;;6.00;6.00;;;;;24.42;59.46;100902.81;5024337;28;45399;-78
2022/07/25 19:35:39;;;;;;;;;6.00;6.00;;;;;24.08;59.62;100852.81;5031373;28;45359;-79
2022/07/25 19:38:04;;;;;;;;;4.00;4.00;;;;;24.19;60.44;100901.53;5028467;28;45547;-76
2022/07/25 19:40:31;;;;;;;;;7.00;5.00;;;;;23.93;61.26;100891.34;5032483;28;45576;-76
2022/07/25 19:42:59;;;;;;;;;7.00;6.00;;;;;23.84;61.84;100906.69;5034469;28;45479;-74
2022/07/25 19:45:25;;;;;;;;;5.67;5.33;;;;;23.75;62.17;100899.69;5036241;28;45385;-77
2022/07/25 19:47:51;;;;;;;;;7.67;6.00;;;;;23.58;62.64;100895.56;5029572;28;45730;-79
2022/07/25 19:50:17;;;;;;;;;6.33;5.67;;;;;23.55;62.96;100906.28;5028656;28;45400;-77
2022/07/25 19:52:42;;;;;;;;;6.67;6.00;;;;;23.33;64.06;100910.22;5031466;28;45761;-75
2022/07/25 19:55:08;;;;;;;;;7.33;6.33;;;;;23.16;63.84;100897.19;5032599;28;45551;-77
2022/07/25 19:57:34;;;;;;;;;5.33;5.33;;;;;23.21;63.92;100905.97;5032894;28;46074;-77
2022/07/25 20:00:00;;;;;;;;;4.33;4.00;;;;;23.10;63.73;100906.16;5025987;28;45499;-77
2022/07/25 20:02:26;;;;;;;;;6.00;5.67;;;;;22.81;63.50;100862.16;5031964;28;45473;-77
2022/07/25 20:04:52;;;;;;;;;5.00;4.67;;;;;22.83;64.06;100894.97;5034226;28;45528;-77
2022/07/25 20:07:19;;;;;;;;;3.00;3.00;;;;;22.58;63.51;100877.59;5035344;28;45593;-77
2022/07/25 20:09:45;;;;;;;;;5.00;4.00;;;;;22.55;63.71;100886.53;5032278;28;45528;-76
2022/07/25 20:12:10;;;;;;;;;6.00;6.00;;;;;22.64;64.38;100910.38;5034714;28;45478;-77
2022/07/25 20:14:37;;;;;;;;;4.00;4.00;;;;;22.38;64.53;100877.88;5030487;28;45465;-76
2022/07/25 20:17:03;;;;;;;;;4.67;4.00;;;;;22.39;64.10;100885.84;5044324;28;47070;-77
2022/07/25 20:19:29;;;;;;;;;5.00;4.00;;;;;22.48;64.11;100908.78;5026888;28;45576;-76
2022/07/25 20:21:55;;;;;;;;;5.00;4.00;;;;;22.52;64.47;100917.63;5032076;28;45513;-79
2022/07/25 20:24:21;;;;;;;;;4.00;4.00;;;;;22.43;65.53;100927.50;5034246;28;45530;-75
2022/07/25 20:26:46;;;;;;;;;4.00;4.00;;;;;22.28;64.87;100903.72;5030550;28;46479;-76
2022/07/25 20:29:12;;;;;;;;;4.33;3.00;;;;;22.42;64.13;100917.78;5030878;28;45775;-75
2022/07/25 20:31:38;;;;;;;;;5.33;4.33;;;;;22.32;64.45;100916.13;5034756;28;45522;-78
2022/07/25 20:34:03;;;;;;;;;5.33;4.33;;;;;22.06;64.79;100871.16;5029729;28;45472;-75
2022/07/25 20:36:29;;;;;;;;;5.00;4.67;;;;;22.32;65.27;100916.13;5031344;28;45364;-75
2022/07/25 20:38:54;;;;;;;;;6.00;4.33;;;;;22.34;65.21;100930.31;5029981;28;45477;-76
2022/07/25 20:41:20;;;;;;;;;5.67;5.00;;;;;22.22;64.76;100909.09;5026494;28;45375;-78
2022/07/25 20:43:45;;;;;;;;;5.67;5.00;;;;;22.42;65.13;100938.16;5037489;28;45432;-76
2022/07/25 20:46:11;;;;;;;;;6.67;4.67;;;;;22.23;64.95;100890.47;5035693;28;45629;-75
2022/07/25 20:48:36;;;;;;;;;5.00;5.00;;;;;22.46;65.11;100928.38;5033535;28;45518;-75
2022/07/25 20:51:03;;;;;;;;;4.67;4.00;;;;;22.51;64.40;100915.88;5031790;28;45505;-76
2022/07/25 20:53:29;;;;;;;;;6.00;4.67;;;;;22.68;64.33;100931.63;5035101;28;45490;-76
2022/07/25 20:55:57;;;;;;;;;5.33;4.00;;;;;22.63;63.71;100921.91;5030187;28;45468;-79
2022/07/25 20:58:22;;;;;;;;;4.00;4.00;;;;;22.54;63.87;100931.81;5030023;28;45534;-78
2022/07/25 21:00:48;;;;;;;;;1.33;0.33;;;;;22.20;64.24;100876.31;5027757;28;45447;-77
2022/07/25 21:03:14;;;;;;;;;4.33;4.00;;;;;22.57;64.35;100929.13;5020943;28;45556;-80
2022/07/25 21:05:42;;;;;;;;;7.67;7.00;;;;;22.72;64.69;100936.00;5041046;28;47038;-79
2022/07/25 21:08:09;;;;;;;;;5.00;4.00;;;;;22.79;64.73;100932.34;5027774;28;45885;-74
2022/07/25 21:10:34;;;;;;;;;4.67;4.00;;;;;22.73;64.68;100920.00;5027208;28;45541;-76
2022/07/25 21:13:00;;;;;;;;;4.67;4.00;;;;;22.83;64.62;100934.94;5035212;28;45541;-79
2022/07/25 21:15:25;;;;;;;;;4.00;4.00;;;;;22.71;64.83;100937.78;5034366;28;45526;-76
2022/07/25 21:17:51;;;;;;;;;5.67;4.00;;;;;22.46;64.46;100912.38;5035850;28;45557;-77
2022/07/25 21:20:17;;;;;;;;;5.00;5.00;;;;;22.57;65.01;100929.97;5036863;28;45455;-77
2022/07/25 21:22:43;;;;;;;;;6.67;5.00;;;;;22.56;64.45;100936.22;5036546;28;45506;-77
2022/07/25 21:25:09;;;;;;;;;5.33;5.00;;;;;22.62;64.72;100937.91;5037530;28;45500;-77
2022/07/25 21:27:35;;;;;;;;;3.33;3.33;;;;;22.71;64.57;100932.47;5032211;28;45447;-77
2022/07/25 21:30:03;;;;;;;;;4.00;4.00;;;;;22.66;65.07;100918.34;5032987;28;45447;-76
2022/07/25 21:32:29;;;;;;;;;4.33;4.00;;;;;22.77;65.33;100936.81;5031473;28;45634;-78
2022/07/25 21:34:54;;;;;;;;;3.00;3.00;;;;;22.62;65.85;100911.28;5035386;28;45629;-77
2022/07/25 21:37:20;;;;;;;;;7.00;6.33;;;;;22.67;66.75;100940.53;5035667;28;46200;-75
2022/07/25 21:39:46;;;;;;;;;4.00;4.00;;;;;22.37;66.50;100908.06;5035619;28;45455;-74
2022/07/25 21:42:11;;;;;;;;;7.33;5.00;;;;;22.47;66.93;100938.13;5027202;28;45480;-75
2022/07/25 21:44:38;;;;;;;;;6.00;5.33;;;;;22.49;66.82;100933.66;5027022;28;45405;-85
2022/07/25 21:47:04;;;;;;;;;5.33;4.67;;;;;22.39;66.46;100919.59;5029333;28;45323;-74
2022/07/25 21:52:14;;;;;;;;;6.33;5.00;;;;;22.48;66.58;100930.09;5024258;28;45525;-73
2022/07/25 21:54:41;;;;;;;;;6.00;4.67;;;;;22.49;66.52;100939.84;5033254;28;45496;-72
2022/07/25 21:57:06;;;;;;;;;8.00;5.00;;;;;22.50;66.86;100935.41;5031743;28;46052;-72
2022/07/25 21:59:32;;;;;;;;;4.33;4.33;;;;;22.45;67.19;100932.81;5035663;28;45350;-72
2022/07/25 22:01:57;;;;;;;;;5.67;5.00;;;;;22.43;66.90;100929.28;5031739;28;46280;-72
2022/07/25 22:04:23;;;;;;;;;5.00;4.00;;;;;22.43;66.56;100930.16;5031695;28;46138;-73
2022/07/25 22:06:49;;;;;;;;;4.00;4.00;;;;;22.38;66.91;100926.69;5035909;28;45614;-72
2022/07/25 22:09:14;;;;;;;;;6.33;5.33;;;;;22.41;66.77;100926.66;5034906;28;45540;-72
2022/07/25 22:11:40;;;;;;;;;4.33;4.00;;;;;22.41;66.95;100923.09;5034494;28;45359;-72
2022/07/25 22:14:06;;;;;;;;;5.00;5.00;;;;;22.21;66.88;100889.59;5029061;28;45386;-72
2022/07/25 22:16:31;;;;;;;;;9.00;6.00;;;;;22.38;66.79;100924.03;5029972;28;45355;-72
2022/07/25 22:18:57;;;;;;;;;6.33;5.00;;;;;22.27;67.33;100904.66;5031449;28;45476;-73
2022/07/25 22:21:23;;;;;;;;;5.33;5.00;;;;;22.10;67.27;100877.34;5030789;28;45466;-73
2022/07/25 22:23:48;;;;;;;;;7.33;5.00;;;;;22.34;66.84;100924.97;5032198;28;46400;-72
2022/07/25 22:26:14;;;;;;;;;4.67;4.67;;;;;22.33;67.15;100925.88;5031197;28;45460;-72
2022/07/25 22:28:39;;;;;;;;;5.67;4.67;;;;;22.38;67.35;100924.03;5032682;28;45541;-72
2022/07/25 22:31:05;;;;;;;;;7.00;5.00;;;;;22.46;67.19;100926.56;5030789;28;45489;-72
2022/07/25 22:33:33;;;;;;;;;4.67;4.00;;;;;22.41;66.95;100913.34;5032904;28;45320;-72
2022/07/25 22:35:59;;;;;;;;;6.00;5.00;;;;;22.36;66.49;100882.34;5033942;28;45569;-72
2022/07/25 22:38:24;;;;;;;;;5.33;4.33;;;;;22.39;66.81;100891.19;5034098;28;45469;-73
2022/07/25 22:40:50;;;;;;;;;4.00;4.00;;;;;22.58;66.20;100921.13;5033915;28;45611;-72
2022/07/25 22:43:16;;;;;;;;;6.00;5.00;;;;;22.57;66.38;100924.66;5034955;28;45618;-73
2022/07/25 22:45:41;;;;;;;;;4.67;4.67;;;;;22.48;66.92;100919.44;5032136;28;45670;-72
2022/07/25 22:48:07;;;;;;;;;5.00;5.00;;;;;22.40;67.69;100932.88;5031751;28;45508;-72
2022/07/25 22:50:32;;;;;;;;;5.33;4.67;;;;;22.29;68.10;100929.47;5030905;28;45510;-72
2022/07/25 22:52:58;;;;;;;;;6.33;6.00;;;;;22.23;67.88;100926.84;5032066;28;45471;-72
2022/07/25 22:55:24;;;;;;;;;7.00;7.00;;;;;22.13;68.40;100927.88;5032970;28;45382;-73
2022/07/25 22:57:49;;;;;;;;;7.67;5.67;;;;;22.05;68.78;100923.50;5028830;28;45453;-72
2022/07/25 23:00:16;;;;;;;;;4.33;4.33;;;;;21.91;69.93;100921.91;5029175;28;45470;-72
2022/07/25 23:02:42;;;;;;;;;7.00;6.00;;;;;21.93;69.61;100925.44;5030804;28;45375;-72
2022/07/25 23:05:08;;;;;;;;;5.00;5.00;;;;;21.72;69.94;100900.78;5030628;28;45427;-72
2022/07/25 23:07:34;;;;;;;;;5.00;5.00;;;;;21.87;69.52;100929.03;5032828;28;45619;-72
2022/07/25 23:10:01;;;;;;;;;4.67;4.00;;;;;21.89;69.58;100929.88;5035000;28;45298;-72
2022/07/25 23:12:27;;;;;;;;;5.33;5.33;;;;;21.92;69.87;100919.19;5028983;28;45922;-72
2022/07/25 23:14:52;;;;;;;;;4.67;3.67;;;;;21.36;69.10;100815.19;5030302;28;45515;-73
2022/07/25 23:17:21;;;;;;;;;4.00;3.00;;;;;22.02;68.81;100920.88;5034227;28;45383;-72
2022/07/25 23:19:49;;;;;;;;;3.67;3.67;;;;;22.07;68.55;100922.63;5035150;28;45532;-72
2022/07/25 23:22:16;;;;;;;;;4.00;4.00;;;;;22.00;69.23;100912.03;5033074;28;45725;-72
2022/07/25 23:24:42;;;;;;;;;6.00;5.00;;;;;21.96;69.11;100917.41;5036773;28;45673;-72
2022/07/25 23:27:07;;;;;;;;;5.00;4.33;;;;;21.96;69.17;100909.41;5032982;28;45415;-72
2022/07/25 23:29:33;;;;;;;;;4.00;4.00;;;;;21.85;69.31;100893.59;5033717;28;45495;-72
2022/07/25 23:31:59;;;;;;;;;4.00;4.00;;;;;22.01;69.07;100918.25;5034637;28;46050;-72
2022/07/25 23:34:24;;;;;;;;;5.00;5.00;;;;;21.95;68.73;100913.88;5033678;28;45427;-72
2022/07/25 23:36:50;;;;;;;;;5.00;4.33;;;;;22.00;69.06;100913.81;5031206;28;45817;-72
2022/07/25 23:39:16;;;;;;;;;6.00;5.33;;;;;21.96;69.23;100894.31;5028842;28;45317;-72
2022/07/25 23:41:41;;;;;;;;;5.00;5.00;;;;;22.17;69.42;100916.28;5022241;28;45513;-72
2022/07/25 23:44:07;;;;;;;;;6.00;5.00;;;;;22.05;69.42;100899.56;5024509;28;45251;-73
2022/07/25 23:46:32;;;;;;;;;5.33;5.00;;;;;22.14;68.92;100908.31;5026825;28;45452;-73
2022/07/25 23:48:58;;;;;;;;;5.00;4.00;;;;;22.04;69.46;100910.19;5028878;28;45422;-72
2022/07/25 23:51:25;;;;;;;;;3.00;3.00;;;;;21.95;69.96;100903.22;5028074;28;46098;-73
2022/07/25 23:53:50;;;;;;;;;5.67;4.00;;;;;21.80;70.02;100888.31;5025827;28;45206;-72
2022/07/25 23:56:16;;;;;;;;;4.33;4.00;;;;;21.84;70.06;100899.78;5024602;28;45496;-72
2022/07/25 23:58:41;;;;;;;;;3.33;3.33;;;;;21.80;70.22;100890.09;5028824;28;45446;-72
